createdAt,value
2022-12-24T00:03:16.030Z,16.80
2022-12-24T00:08:17.609Z,15.77
2022-12-24T00:13:19.512Z,13.90
2022-12-24T00:18:21.087Z,26.65
2022-12-24T00:23:22.894Z,24.88
2022-12-24T00:28:24.444Z,16.45
2022-12-24T00:33:26.104Z,16.10
2022-12-24T00:38:27.671Z,15.65
2022-12-24T00:43:30.111Z,13.10
2022-12-24T00:48:31.667Z,18.88
2022-12-24T00:53:33.278Z,18.98
2022-12-24T00:58:35.005Z,17.05
2022-12-24T01:03:36.682Z,9.55
2022-12-24T01:08:38.598Z,11.63
2022-12-24T01:13:40.286Z,18.25
2022-12-24T01:18:41.922Z,10.82
2022-12-24T01:23:44.018Z,13.75
2022-12-24T01:28:45.617Z,11.32
2022-12-24T01:33:49.064Z,13.52
2022-12-24T01:38:50.657Z,11.93
2022-12-24T01:43:52.253Z,14.02
2022-12-24T01:48:59.696Z,16.90
2022-12-24T01:54:13.061Z,11.27
2022-12-24T01:59:18.033Z,16.65
2022-12-24T02:04:38.049Z,11.82
2022-12-24T02:09:40.112Z,14.98
2022-12-24T02:14:41.677Z,12.85
2022-12-24T02:20:20.889Z,18.85
2022-12-24T02:25:50.466Z,11.95
2022-12-24T02:31:05.686Z,14.20
2022-12-24T02:36:20.485Z,21.40
2022-12-24T02:41:26.890Z,13.45
2022-12-24T02:46:32.299Z,16.85
2022-12-24T02:51:35.005Z,13.57
2022-12-24T02:57:08.405Z,14.88
2022-12-24T03:02:26.669Z,14.18
2022-12-24T03:07:47.608Z,14.02
2022-12-24T03:13:07.788Z,14.35
2022-12-24T03:18:12.045Z,9.88
2022-12-24T03:23:14.112Z,12.45
2022-12-24T03:28:18.846Z,7.78
2022-12-24T03:33:20.917Z,6.75
2022-12-24T03:38:22.573Z,6.97
2022-12-24T03:43:24.130Z,9.10
2022-12-24T03:48:32.385Z,7.55
2022-12-24T03:53:34.336Z,9.88
2022-12-24T03:58:35.986Z,7.65
2022-12-24T04:03:37.582Z,6.80
2022-12-24T04:08:40.166Z,10.52
2022-12-24T04:13:41.941Z,11.07
2022-12-24T04:18:43.781Z,8.00
2022-12-24T04:23:45.815Z,8.52
2022-12-24T04:28:47.372Z,7.13
2022-12-24T04:33:51.797Z,7.30
2022-12-24T04:38:53.336Z,10.52
2022-12-24T04:43:55.420Z,8.15
2022-12-24T04:48:57.263Z,5.63
2022-12-24T04:53:58.895Z,11.25
2022-12-24T04:59:01.659Z,6.00
2022-12-24T05:04:03.253Z,5.53
2022-12-24T05:09:04.882Z,5.97
2022-12-24T05:14:06.567Z,4.88
2022-12-24T05:19:08.204Z,6.10
2022-12-24T05:24:13.104Z,7.30
2022-12-24T05:29:14.776Z,7.07
2022-12-24T05:34:16.839Z,7.05
2022-12-24T05:39:19.000Z,10.60
2022-12-24T05:44:20.651Z,14.15
2022-12-24T05:49:22.227Z,11.63
2022-12-24T05:54:23.933Z,13.73
2022-12-24T05:59:25.496Z,11.07
2022-12-24T06:04:29.283Z,8.02
2022-12-24T06:09:31.174Z,17.38
2022-12-24T06:14:32.785Z,13.48
2022-12-24T06:19:34.343Z,16.13
2022-12-24T06:24:35.952Z,10.55
2022-12-24T06:29:37.529Z,18.63
2022-12-24T06:34:39.182Z,8.68
2022-12-24T06:39:40.692Z,8.80
2022-12-24T06:44:42.303Z,19.88
2022-12-24T06:49:43.859Z,12.30
2022-12-24T06:54:45.523Z,13.40
2022-12-24T06:59:47.180Z,19.67
2022-12-24T07:04:48.813Z,10.55
2022-12-24T07:09:50.421Z,16.20
2022-12-24T07:14:51.950Z,17.15
2022-12-24T07:19:53.685Z,19.13
2022-12-24T07:24:55.289Z,16.10
2022-12-24T07:29:56.860Z,16.85
2022-12-24T07:34:58.610Z,30.50
2022-12-24T07:40:00.388Z,22.23
2022-12-24T07:45:02.035Z,16.95
2022-12-24T07:50:05.350Z,19.48
2022-12-24T07:55:07.122Z,17.92
2022-12-24T08:00:09.175Z,16.40
2022-12-24T08:05:13.421Z,15.27
2022-12-24T08:10:15.168Z,17.40
2022-12-24T08:15:17.399Z,18.85
2022-12-24T08:20:19.194Z,12.23
2022-12-24T08:25:20.754Z,12.82
2022-12-24T08:30:22.423Z,16.25
2022-12-24T08:35:24.076Z,14.30
2022-12-24T08:40:26.012Z,13.95
2022-12-24T08:45:27.584Z,14.75
2022-12-24T08:50:29.137Z,19.85
2022-12-24T08:55:31.208Z,14.88
2022-12-24T09:00:32.754Z,13.80
2022-12-24T09:05:34.300Z,18.08
2022-12-24T09:10:35.868Z,14.98
2022-12-24T09:15:37.688Z,17.73
2022-12-24T09:20:44.287Z,14.73
2022-12-24T09:25:48.161Z,21.40
2022-12-24T09:31:00.932Z,13.98
2022-12-24T09:36:03.619Z,12.85
2022-12-24T09:41:53.218Z,13.35
2022-12-24T09:46:55.757Z,21.17
2022-12-24T09:52:04.736Z,30.17
2022-12-24T09:57:21.170Z,17.42
2022-12-24T10:02:23.078Z,20.88
2022-12-24T10:07:45.616Z,13.38
2022-12-24T10:12:59.314Z,15.63
2022-12-24T10:18:26.922Z,13.32
2022-12-24T10:23:35.997Z,21.27
2022-12-24T10:28:41.229Z,12.75
2022-12-24T10:33:49.534Z,17.58
2022-12-24T10:38:51.307Z,28.17
2022-12-24T10:43:54.143Z,15.18
2022-12-24T10:49:02.330Z,16.27
2022-12-24T10:54:10.842Z,15.95
2022-12-24T10:59:34.167Z,14.23
2022-12-24T11:04:49.380Z,18.15
2022-12-24T11:10:08.049Z,24.92
2022-12-24T11:15:19.132Z,24.15
2022-12-24T11:20:27.206Z,16.98
2022-12-24T11:25:31.422Z,16.45
2022-12-24T11:30:32.977Z,23.63
2022-12-24T11:35:41.478Z,17.45
2022-12-24T11:40:46.304Z,17.08
2022-12-24T11:45:56.618Z,18.08
2022-12-24T11:51:01.228Z,22.70
2022-12-24T11:56:12.126Z,19.48
2022-12-24T12:01:20.788Z,19.23
2022-12-24T12:06:34.263Z,16.42
2022-12-24T12:11:40.101Z,12.20
2022-12-24T12:16:57.576Z,20.03
2022-12-24T12:22:04.014Z,17.95
2022-12-24T12:27:26.865Z,15.95
2022-12-24T12:32:34.715Z,19.95
2022-12-24T12:37:41.430Z,15.82
2022-12-24T12:43:28.090Z,12.90
2022-12-24T12:48:29.576Z,13.57
2022-12-24T12:53:42.746Z,20.08
2022-12-24T12:59:15.337Z,17.48
2022-12-24T13:04:30.471Z,11.77
2022-12-24T13:09:50.398Z,18.10
2022-12-24T13:15:13.556Z,16.17
2022-12-24T13:20:20.740Z,18.83
2022-12-24T13:25:28.708Z,21.13
2022-12-24T13:30:40.263Z,11.15
2022-12-24T13:36:08.576Z,10.82
2022-12-24T13:41:38.316Z,17.45
2022-12-24T13:47:05.488Z,13.25
2022-12-24T13:52:11.296Z,18.42
2022-12-24T13:57:42.306Z,20.00
2022-12-24T14:03:06.857Z,16.88
2022-12-24T14:08:30.435Z,15.10
2022-12-24T14:13:40.798Z,16.50
2022-12-24T14:19:04.548Z,18.75
2022-12-24T14:24:27.324Z,18.10
2022-12-24T14:29:33.868Z,21.10
2022-12-24T14:39:43.668Z,15.65
2022-12-24T14:45:06.944Z,13.82
2022-12-24T14:50:36.199Z,19.83
2022-12-24T14:55:44.429Z,17.42
2022-12-24T15:00:46.401Z,17.25
2022-12-24T15:05:57.822Z,13.18
2022-12-24T15:11:02.987Z,13.18
2022-12-24T15:16:24.429Z,13.88
2022-12-24T15:21:30.409Z,16.35
2022-12-24T15:26:35.436Z,24.43
2022-12-24T15:31:37.124Z,15.63
2022-12-24T15:36:39.152Z,19.75
2022-12-24T15:41:43.896Z,12.75
2022-12-24T15:46:46.058Z,13.70
2022-12-24T15:51:47.883Z,22.17
2022-12-24T15:56:49.796Z,17.85
2022-12-24T16:01:51.958Z,19.65
2022-12-24T16:06:56.722Z,22.23
2022-12-24T16:12:03.250Z,19.08
2022-12-24T16:17:37.198Z,20.02
2022-12-24T16:22:39.052Z,35.83
2022-12-24T16:27:40.741Z,24.27
2022-12-24T16:32:42.503Z,22.88
2022-12-24T16:37:44.134Z,29.67
2022-12-24T16:42:45.793Z,23.58
2022-12-24T16:47:47.433Z,28.63
2022-12-24T16:52:49.084Z,23.00
2022-12-24T16:57:50.806Z,16.45
2022-12-24T17:02:53.355Z,21.60
2022-12-24T17:07:55.151Z,24.38
2022-12-24T17:12:56.787Z,19.60
2022-12-24T17:18:00.491Z,15.38
2022-12-24T17:23:02.254Z,16.38
2022-12-24T17:28:03.992Z,20.65
2022-12-24T17:33:10.896Z,25.80
2022-12-24T17:38:15.892Z,26.95
2022-12-24T17:43:17.551Z,21.40
2022-12-24T17:48:19.105Z,19.27
2022-12-24T17:53:20.723Z,27.55
2022-12-24T17:58:22.379Z,22.45
2022-12-24T18:03:24.875Z,27.98
2022-12-24T18:08:26.646Z,26.40
2022-12-24T18:13:28.319Z,27.58
2022-12-24T18:18:29.843Z,16.60
2022-12-24T18:23:31.473Z,18.95
2022-12-24T18:28:33.132Z,20.33
2022-12-24T18:33:35.371Z,31.05
2022-12-24T18:38:37.769Z,24.73
2022-12-24T18:43:39.838Z,26.75
2022-12-24T18:48:41.842Z,18.02
2022-12-24T18:53:43.415Z,26.05
2022-12-24T18:58:45.296Z,25.98
2022-12-24T19:03:47.555Z,19.95
2022-12-24T19:08:59.030Z,20.95
2022-12-24T19:14:04.247Z,30.17
2022-12-24T19:19:08.898Z,23.65
2022-12-24T19:24:10.577Z,26.25
2022-12-24T19:29:12.454Z,25.02
2022-12-24T19:34:14.244Z,24.60
2022-12-24T19:39:16.214Z,30.77
2022-12-24T19:44:17.995Z,21.55
2022-12-24T19:49:19.872Z,23.20
2022-12-24T19:54:21.578Z,30.67
2022-12-24T19:59:23.153Z,23.27
2022-12-24T20:04:24.697Z,21.45
2022-12-24T20:09:26.277Z,24.75
2022-12-24T20:14:27.970Z,27.60
2022-12-24T20:19:29.692Z,30.90
2022-12-24T20:24:31.330Z,22.35
2022-12-24T20:29:32.877Z,18.00
2022-12-24T20:34:35.251Z,20.77
2022-12-24T20:39:36.922Z,26.98
2022-12-24T20:44:38.727Z,19.33
2022-12-24T20:49:40.510Z,14.93
2022-12-24T20:54:42.097Z,21.58
2022-12-24T20:59:43.676Z,24.88
2022-12-24T21:04:45.209Z,17.98
2022-12-24T21:09:46.786Z,21.92
2022-12-24T21:14:48.334Z,27.85
2022-12-24T21:19:50.050Z,17.58
2022-12-24T21:24:52.766Z,21.20
2022-12-24T21:29:54.332Z,25.02
2022-12-24T21:34:55.895Z,18.25
2022-12-24T21:39:57.419Z,22.00
2022-12-24T21:44:59.470Z,18.10
2022-12-24T21:50:01.030Z,24.52
2022-12-24T21:55:02.653Z,23.05
2022-12-24T22:00:04.784Z,21.08
2022-12-24T22:05:06.792Z,23.30
2022-12-24T22:10:10.074Z,24.80
2022-12-24T22:15:11.925Z,27.10
2022-12-24T22:20:13.535Z,18.25
2022-12-24T22:25:15.778Z,21.30
2022-12-24T22:30:17.473Z,33.70
2022-12-24T22:35:19.107Z,22.67
2022-12-24T22:40:20.595Z,26.90
2022-12-24T22:45:22.950Z,27.60
2022-12-24T22:50:24.631Z,17.42
2022-12-24T22:55:26.149Z,19.13
2022-12-24T23:00:57.043Z,21.63
2022-12-24T23:06:00.543Z,19.45
2022-12-24T23:11:11.763Z,22.65
2022-12-24T23:16:13.348Z,28.75
2022-12-24T23:21:15.058Z,19.98
2022-12-24T23:26:19.329Z,18.48
2022-12-24T23:31:22.527Z,16.05
2022-12-24T23:36:24.115Z,19.35
2022-12-24T23:41:25.716Z,20.90
2022-12-24T23:46:27.285Z,16.88
2022-12-24T23:51:28.843Z,11.82
2022-12-24T23:56:30.358Z,13.68
